Treherne, Canada
Current Conditions -  °F | °C
As of 1:00 PM on Saturday 25 Oct 2014 (Local Time) from CYBR Reporting Station
Few Clouds Few Clouds  
Wind Chill: 55°   Ceiling: Unl
Heat Index: 55°   Visibility: 15mi
Dew Point: 28°   Wind: 17mph
Humidity: 36%   Direction: 300°WNW
Pressure: 30.05"   Gusts: 23mph
Location:  49.63°N, 98.7°W
Report Text: CYBR 251800Z 30015G20KT 15SM FEW250 13/M02 A3005 RMK CI2 SLP191
Loading
Personal Weather Stations






























Interactive Weather Map
Tropical Storm Tracking
New forecast layout! Learn more

10-Day Weather Forecast

Advertisements
Track Severe Weather on mobile